Time;durP1;ratioP1;P1;durP2;ratioP2;P2;SDS_P1;SDS_P2;PMS_P1;PMS_P2;Temp;Humidity;BMP_temperature;BMP_pressure;BME280_temperature;BME280_humidity;BME280_pressure;Samples;Min_cycle;Max_cycle;Signal;HPM_P1;HPM_P2
2022/11/09 00:00:51;;;;;;;3.40;2.00;;;13.10;99.90;;;;;;5034182;28;20213;-74
2022/11/09 00:03:17;;;;;;;3.10;1.90;;;13.10;99.90;;;;;;5034085;28;20463;-72
2022/11/09 00:05:53;;;;;;;1.90;1.77;;;13.10;99.90;;;;;;5038468;28;20455;-73
2022/11/09 00:08:18;;;;;;;2.20;2.10;;;13.10;99.90;;;;;;5058648;28;20306;-74
2022/11/09 00:10:44;;;;;;;1.70;1.60;;;13.10;99.90;;;;;;5030350;28;20565;-73
2022/11/09 00:13:09;;;;;;;2.30;2.10;;;13.10;99.90;;;;;;5035993;28;20266;-73
2022/11/09 00:15:35;;;;;;;4.17;2.00;;;13.10;99.90;;;;;;5021827;28;20248;-73
2022/11/09 00:18:01;;;;;;;2.30;2.10;;;13.10;99.90;;;;;;5031157;28;20219;-74
2022/11/09 00:20:27;;;;;;;2.10;1.90;;;13.10;99.90;;;;;;5032104;28;20367;-74
2022/11/09 00:22:53;;;;;;;1.80;1.70;;;13.10;99.90;;;;;;5039119;28;20491;-74
2022/11/09 00:25:19;;;;;;;3.43;1.77;;;13.10;99.90;;;;;;5032152;28;20212;-72
2022/11/09 00:27:44;;;;;;;2.50;2.27;;;13.10;99.90;;;;;;5033074;28;20220;-73
2022/11/09 00:30:11;;;;;;;3.90;2.23;;;13.10;99.90;;;;;;5032284;28;20216;-74
2022/11/09 00:32:36;;;;;;;2.60;2.40;;;13.10;99.90;;;;;;5030377;28;20234;-74
2022/11/09 00:35:02;;;;;;;2.00;1.90;;;13.10;99.90;;;;;;5013509;28;20973;-73
2022/11/09 00:37:29;;;;;;;2.10;1.90;;;13.10;99.90;;;;;;5022358;28;20737;-73
2022/11/09 00:39:54;;;;;;;3.17;2.37;;;13.10;99.90;;;;;;5028420;28;20446;-75
2022/11/09 00:42:20;;;;;;;3.97;1.97;;;13.10;99.90;;;;;;5053466;28;20986;-75
2022/11/09 00:44:45;;;;;;;1.67;1.57;;;13.10;99.90;;;;;;5016188;28;20656;-72
2022/11/09 00:47:11;;;;;;;3.17;2.27;;;13.10;99.90;;;;;;5027628;28;20208;-74
2022/11/09 00:49:37;;;;;;;4.67;2.00;;;13.00;99.90;;;;;;5031172;28;20726;-74
2022/11/09 00:52:03;;;;;;;2.50;2.30;;;13.10;99.90;;;;;;5017321;28;20458;-74
2022/11/09 00:54:29;;;;;;;2.20;2.00;;;13.10;99.90;;;;;;5034959;28;20220;-74
2022/11/09 00:56:54;;;;;;;1.77;1.67;;;13.10;99.90;;;;;;5027846;28;20236;-73
2022/11/09 00:59:20;;;;;;;2.30;2.10;;;13.10;99.90;;;;;;5044866;28;20212;-73
2022/11/09 01:01:46;;;;;;;3.60;1.83;;;13.00;99.90;;;;;;5024049;28;20678;-73
2022/11/09 01:04:12;;;;;;;1.70;1.60;;;13.10;99.90;;;;;;5030104;28;20512;-74
2022/11/09 01:06:38;;;;;;;3.10;2.90;;;13.10;99.90;;;;;;5033567;28;20334;-74
2022/11/09 01:09:03;;;;;;;2.07;1.87;;;13.10;99.90;;;;;;5035870;28;20232;-74
2022/11/09 01:11:29;;;;;;;2.10;1.90;;;13.10;99.90;;;;;;5049153;28;20219;-74
2022/11/09 01:13:59;;;;;;;2.60;2.40;;;13.10;99.90;;;;;;5032818;28;20311;-75
2022/11/09 01:16:25;;;;;;;2.03;1.93;;;13.10;99.90;;;;;;5044545;28;20299;-73
2022/11/09 01:18:53;;;;;;;2.10;1.90;;;13.10;99.90;;;;;;5013500;28;20457;-74
2022/11/09 01:21:19;;;;;;;2.20;1.50;;;13.10;99.90;;;;;;5040733;28;20480;-74
2022/11/09 01:23:44;;;;;;;1.67;1.57;;;13.10;99.90;;;;;;5035290;28;20459;-75
2022/11/09 01:26:13;;;;;;;2.00;1.90;;;13.10;99.90;;;;;;5043371;28;20592;-74
2022/11/09 01:28:39;;;;;;;2.63;2.43;;;13.10;99.90;;;;;;5028483;28;20232;-74
2022/11/09 01:31:09;;;;;;;1.80;1.60;;;13.10;99.90;;;;;;5050175;28;20463;-74
2022/11/09 01:33:35;;;;;;;4.23;1.63;;;13.10;99.90;;;;;;5021533;28;20495;-74
2022/11/09 01:36:06;;;;;;;2.73;1.73;;;13.10;99.90;;;;;;5029225;28;20452;-74
2022/11/09 01:38:32;;;;;;;2.03;1.50;;;13.10;99.90;;;;;;5033674;28;20459;-73
2022/11/09 01:40:59;;;;;;;2.40;2.23;;;13.10;99.90;;;;;;5030410;28;20830;-74
2022/11/09 01:43:26;;;;;;;2.40;2.00;;;13.10;99.90;;;;;;5032923;28;20462;-74
2022/11/09 01:46:21;;;;;;;2.27;1.67;;;13.10;99.90;;;;;;5013525;28;20538;-73
2022/11/09 01:48:59;;;;;;;1.87;1.57;;;13.20;99.90;;;;;;5041355;28;20221;-73
2022/11/09 01:51:30;;;;;;;2.43;1.70;;;13.10;99.90;;;;;;5058980;28;21248;-74
2022/11/09 01:54:01;;;;;;;3.40;3.17;;;13.10;99.90;;;;;;5035987;28;20448;-74
2022/11/09 01:56:29;;;;;;;3.50;2.00;;;13.10;99.90;;;;;;5028523;28;20534;-73
2022/11/09 01:59:01;;;;;;;2.50;2.07;;;13.10;99.90;;;;;;5044306;28;22786;-74
2022/11/09 02:01:29;;;;;;;2.13;1.93;;;13.20;99.90;;;;;;5045665;28;20447;-74
2022/11/09 02:04:18;;;;;;;2.77;2.47;;;13.20;99.90;;;;;;5036602;28;20450;-73
2022/11/09 02:06:45;;;;;;;2.40;2.20;;;13.20;99.90;;;;;;5039950;28;20457;-74
2022/11/09 02:09:25;;;;;;;2.70;1.87;;;13.20;99.90;;;;;;5036812;28;20817;-73
2022/11/09 02:11:51;;;;;;;2.17;1.63;;;13.20;99.90;;;;;;5039836;28;20451;-74
2022/11/09 02:14:19;;;;;;;2.63;2.00;;;13.20;99.90;;;;;;5030309;28;20456;-74
2022/11/09 02:16:46;;;;;;;2.43;1.80;;;13.20;99.90;;;;;;5028488;28;20455;-74
2022/11/09 02:19:13;;;;;;;2.57;2.30;;;13.20;99.90;;;;;;5029650;28;20520;-73
2022/11/09 02:21:38;;;;;;;1.63;1.53;;;13.10;99.90;;;;;;5031579;28;20456;-74
2022/11/09 02:24:05;;;;;;;2.73;1.80;;;13.20;99.90;;;;;;5029261;28;20221;-73
2022/11/09 02:26:38;;;;;;;1.63;1.53;;;13.10;99.90;;;;;;5022860;28;20216;-74
2022/11/09 02:29:07;;;;;;;1.57;1.47;;;13.10;99.90;;;;;;5038090;28;20470;-74
2022/11/09 02:31:38;;;;;;;1.80;1.70;;;13.10;99.90;;;;;;5028153;28;20870;-74
2022/11/09 02:34:12;;;;;;;1.70;1.60;;;13.10;99.90;;;;;;5008834;28;20538;-74
2022/11/09 02:36:37;;;;;;;1.93;1.77;;;13.10;99.90;;;;;;5064832;28;20976;-74
2022/11/09 02:39:08;;;;;;;1.70;1.60;;;13.10;99.90;;;;;;5031441;28;20618;-74
2022/11/09 02:41:40;;;;;;;1.60;1.50;;;13.10;99.90;;;;;;5018033;28;20996;-74
2022/11/09 02:44:05;;;;;;;4.07;1.80;;;13.10;99.90;;;;;;5023969;28;20512;-74
2022/11/09 02:46:34;;;;;;;1.50;1.40;;;13.10;99.90;;;;;;5052879;28;20462;-74
2022/11/09 02:49:01;;;;;;;2.13;1.83;;;13.10;99.90;;;;;;5041178;28;20232;-74
2022/11/09 02:51:27;;;;;;;1.73;1.63;;;13.10;99.90;;;;;;5038522;28;20512;-75
2022/11/09 02:53:53;;;;;;;1.30;1.20;;;13.10;99.90;;;;;;5026492;28;20459;-74
2022/11/09 02:56:21;;;;;;;1.43;1.33;;;13.10;99.90;;;;;;5032206;28;20531;-74
2022/11/09 02:58:46;;;;;;;1.60;1.50;;;13.10;99.90;;;;;;5044553;28;20472;-73
2022/11/09 03:01:12;;;;;;;1.50;1.33;;;13.10;99.90;;;;;;5012914;28;20447;-74
2022/11/09 03:03:39;;;;;;;1.80;1.67;;;13.10;99.90;;;;;;5037196;28;20471;-74
2022/11/09 03:06:04;;;;;;;1.63;1.53;;;13.00;99.90;;;;;;5057441;28;20842;-73
2022/11/09 03:08:30;;;;;;;1.60;1.50;;;13.00;99.90;;;;;;5037903;28;20228;-74
2022/11/09 03:10:58;;;;;;;1.33;1.23;;;13.00;99.90;;;;;;5041040;28;20445;-74
2022/11/09 03:13:25;;;;;;;1.50;1.40;;;13.00;99.90;;;;;;5038094;28;20219;-74
2022/11/09 03:15:50;;;;;;;1.40;1.30;;;13.00;99.90;;;;;;5021427;28;20467;-74
2022/11/09 03:18:16;;;;;;;1.07;1.00;;;13.00;99.90;;;;;;5038879;28;20448;-73
2022/11/09 03:20:42;;;;;;;1.50;1.40;;;13.00;99.90;;;;;;5031366;28;20303;-74
2022/11/09 03:23:09;;;;;;;4.00;1.30;;;13.00;99.90;;;;;;5032554;28;20236;-74
2022/11/09 03:25:37;;;;;;;1.20;1.17;;;13.00;99.90;;;;;;5024479;28;20209;-74
2022/11/09 03:28:05;;;;;;;3.43;1.40;;;13.00;99.90;;;;;;5037360;28;20522;-72
2022/11/09 03:30:32;;;;;;;1.40;1.30;;;13.00;99.90;;;;;;5006080;28;20463;-74
2022/11/09 03:33:00;;;;;;;1.20;1.10;;;13.00;99.90;;;;;;5012054;28;20467;-74
2022/11/09 03:35:26;;;;;;;1.17;1.10;;;13.00;99.90;;;;;;5026668;28;20478;-73
2022/11/09 03:37:52;;;;;;;1.20;1.10;;;13.00;99.90;;;;;;5016578;28;20455;-73
2022/11/09 03:40:19;;;;;;;1.93;1.17;;;13.00;99.90;;;;;;5008083;28;20546;-74
2022/11/09 03:42:47;;;;;;;1.40;1.30;;;13.00;99.90;;;;;;5013458;28;20463;-74
2022/11/09 03:45:16;;;;;;;2.00;1.37;;;13.00;99.90;;;;;;5041730;28;20473;-74
2022/11/09 03:47:42;;;;;;;1.17;1.00;;;13.00;99.90;;;;;;5052431;28;20510;-74
2022/11/09 03:50:09;;;;;;;1.30;1.20;;;13.00;99.90;;;;;;5022553;28;20996;-73
2022/11/09 03:52:35;;;;;;;1.37;1.27;;;13.00;99.90;;;;;;5023542;28;20458;-74
2022/11/09 03:55:01;;;;;;;1.30;1.20;;;13.00;99.90;;;;;;5008434;28;20961;-73
2022/11/09 03:57:27;;;;;;;1.70;1.60;;;13.00;99.90;;;;;;5043850;28;20529;-74
2022/11/09 03:59:52;;;;;;;1.73;1.10;;;13.00;99.90;;;;;;5019525;28;20502;-74
2022/11/09 04:02:18;;;;;;;1.43;1.33;;;13.00;99.90;;;;;;5037001;28;20643;-74
2022/11/09 04:04:44;;;;;;;1.60;1.50;;;13.00;99.90;;;;;;5021579;28;20238;-74
2022/11/09 04:07:10;;;;;;;1.93;1.13;;;12.90;99.90;;;;;;5042092;28;20320;-74
2022/11/09 04:09:36;;;;;;;1.67;1.57;;;12.90;99.90;;;;;;5025965;28;20231;-74
2022/11/09 04:12:02;;;;;;;2.20;1.57;;;12.90;99.90;;;;;;5031399;28;20455;-74
2022/11/09 04:14:28;;;;;;;1.40;1.30;;;12.90;99.90;;;;;;5027203;28;20217;-74
2022/11/09 04:16:53;;;;;;;1.50;1.40;;;12.90;99.90;;;;;;5044980;28;20870;-74
2022/11/09 04:19:19;;;;;;;2.20;1.57;;;12.90;99.90;;;;;;5026709;28;20592;-73
2022/11/09 04:21:45;;;;;;;1.30;1.23;;;12.90;99.90;;;;;;5030320;28;20721;-74
2022/11/09 04:24:10;;;;;;;0.93;0.93;;;12.90;99.90;;;;;;5038852;28;20587;-74
2022/11/09 04:26:36;;;;;;;1.20;1.10;;;12.90;99.90;;;;;;5046655;28;20220;-73
2022/11/09 04:29:02;;;;;;;1.20;1.10;;;12.90;99.90;;;;;;5016143;28;20216;-74
2022/11/09 04:31:28;;;;;;;1.33;1.23;;;12.90;99.90;;;;;;5042498;28;20307;-74
2022/11/09 04:33:54;;;;;;;1.20;1.20;;;12.90;99.90;;;;;;5032821;28;20527;-73
2022/11/09 04:36:20;;;;;;;1.13;1.13;;;12.90;99.90;;;;;;5023802;28;20300;-74
2022/11/09 04:38:45;;;;;;;1.30;1.20;;;12.90;99.90;;;;;;5025248;28;20754;-73
2022/11/09 04:41:11;;;;;;;2.90;1.97;;;12.90;99.90;;;;;;5052183;28;20267;-74
2022/11/09 04:43:37;;;;;;;4.03;1.50;;;12.90;99.90;;;;;;5031603;28;20304;-74
2022/11/09 04:46:03;;;;;;;1.30;1.20;;;12.90;99.90;;;;;;5032300;28;20221;-74
2022/11/09 04:48:32;;;;;;;1.60;1.50;;;12.90;99.90;;;;;;5055071;28;20247;-74
2022/11/09 04:51:06;;;;;;;1.40;1.30;;;12.90;99.90;;;;;;5034729;28;20551;-72
2022/11/09 04:53:33;;;;;;;2.00;1.27;;;12.90;99.90;;;;;;5038886;28;20541;-72
2022/11/09 04:55:59;;;;;;;1.47;1.37;;;12.90;99.90;;;;;;5045612;28;20517;-74
2022/11/09 04:58:25;;;;;;;1.43;1.33;;;12.90;99.90;;;;;;5028476;28;20464;-74
2022/11/09 05:00:52;;;;;;;1.47;1.37;;;12.90;99.90;;;;;;5029390;28;20303;-74
2022/11/09 05:03:18;;;;;;;1.53;1.43;;;12.90;99.90;;;;;;5069573;28;20481;-74
2022/11/09 05:05:44;;;;;;;1.80;1.70;;;12.90;99.90;;;;;;5036516;28;20456;-74
2022/11/09 05:08:10;;;;;;;1.60;1.50;;;12.90;99.90;;;;;;5026959;28;20282;-74
2022/11/09 05:10:35;;;;;;;4.10;1.70;;;12.90;99.90;;;;;;5039182;28;20460;-74
2022/11/09 05:13:04;;;;;;;2.40;1.77;;;12.90;99.90;;;;;;5034581;28;20486;-74
2022/11/09 05:15:30;;;;;;;2.10;1.90;;;12.90;99.90;;;;;;5014332;28;20999;-74
2022/11/09 05:17:56;;;;;;;1.83;1.60;;;12.90;99.90;;;;;;5035666;28;20453;-73
2022/11/09 05:20:22;;;;;;;1.70;1.60;;;12.90;99.90;;;;;;5009865;28;20468;-73
2022/11/09 05:25:33;;;;;;;2.40;1.93;;;12.90;99.90;;;;;;5013884;28;20536;-73
2022/11/09 05:27:58;;;;;;;1.60;1.50;;;12.80;99.90;;;;;;5013449;28;21054;-75
2022/11/09 05:30:24;;;;;;;1.70;1.60;;;12.90;99.90;;;;;;5010975;28;20551;-74
2022/11/09 05:32:50;;;;;;;1.70;1.60;;;12.80;99.90;;;;;;5013596;28;20216;-74
2022/11/09 05:35:16;;;;;;;1.63;1.53;;;12.80;99.90;;;;;;5015701;28;20463;-74
2022/11/09 05:37:45;;;;;;;1.37;1.27;;;12.90;99.90;;;;;;5009592;28;20308;-74
2022/11/09 05:40:10;;;;;;;2.33;2.07;;;12.90;99.90;;;;;;5016654;28;20593;-73
2022/11/09 05:42:40;;;;;;;1.90;1.80;;;12.80;99.90;;;;;;5033714;28;20464;-74
2022/11/09 05:45:07;;;;;;;2.30;2.10;;;12.90;99.90;;;;;;5010039;28;20367;-75
2022/11/09 05:47:37;;;;;;;2.20;2.00;;;12.80;99.90;;;;;;5008872;28;20522;-74
2022/11/09 05:50:04;;;;;;;2.17;1.90;;;12.90;99.90;;;;;;5024717;28;20545;-73
2022/11/09 05:52:30;;;;;;;2.07;1.80;;;12.80;99.90;;;;;;5011098;28;21092;-74
2022/11/09 05:54:56;;;;;;;1.77;1.67;;;12.80;99.90;;;;;;5014700;28;20546;-74
2022/11/09 05:57:21;;;;;;;2.53;2.30;;;12.80;99.90;;;;;;5014596;28;20216;-73
2022/11/09 05:59:47;;;;;;;2.90;2.30;;;12.80;99.90;;;;;;5015104;28;20589;-74
2022/11/09 06:02:13;;;;;;;2.00;1.67;;;12.80;99.90;;;;;;5008564;28;20708;-74
2022/11/09 06:04:38;;;;;;;2.20;1.93;;;12.80;99.90;;;;;;5015859;28;20213;-74
2022/11/09 06:07:04;;;;;;;1.80;1.70;;;12.80;99.90;;;;;;5010845;28;20718;-73
2022/11/09 06:09:30;;;;;;;2.10;1.90;;;12.80;99.90;;;;;;5045812;28;20651;-74
2022/11/09 06:11:55;;;;;;;2.30;2.10;;;12.80;99.90;;;;;;5016467;28;20707;-74
2022/11/09 06:14:21;;;;;;;2.17;2.00;;;12.80;99.90;;;;;;5016442;28;20221;-71
2022/11/09 06:16:46;;;;;;;1.80;1.70;;;12.80;99.90;;;;;;5034117;28;20250;-75
2022/11/09 06:19:15;;;;;;;4.00;1.90;;;12.80;99.90;;;;;;5026183;28;20232;-72
2022/11/09 06:21:40;;;;;;;3.37;2.47;;;12.80;99.90;;;;;;5039028;28;20767;-74
2022/11/09 06:24:06;;;;;;;2.83;2.47;;;12.80;99.90;;;;;;5045247;28;20455;-74
2022/11/09 06:26:32;;;;;;;2.30;2.20;;;12.80;99.90;;;;;;5015263;28;20225;-73
2022/11/09 06:28:57;;;;;;;2.20;2.00;;;12.80;99.90;;;;;;5023225;28;20311;-73
2022/11/09 06:31:23;;;;;;;2.83;2.10;;;12.80;99.90;;;;;;5017847;28;20232;-73
2022/11/09 06:33:49;;;;;;;2.67;2.40;;;12.80;99.90;;;;;;5014223;28;20220;-73
2022/11/09 06:36:15;;;;;;;3.33;2.30;;;12.80;99.90;;;;;;5041456;28;20213;-74
2022/11/09 06:38:41;;;;;;;1.90;1.80;;;12.80;99.90;;;;;;5044670;28;20460;-73
2022/11/09 06:41:08;;;;;;;2.17;1.97;;;12.80;99.90;;;;;;5046261;28;20247;-74
2022/11/09 06:43:34;;;;;;;3.83;2.43;;;12.80;99.90;;;;;;5048134;28;20603;-75
2022/11/09 06:46:03;;;;;;;2.03;1.90;;;12.80;99.90;;;;;;5033572;28;20462;-74
2022/11/09 06:48:28;;;;;;;3.13;2.10;;;12.80;99.90;;;;;;5019647;28;20297;-75
2022/11/09 06:50:58;;;;;;;2.43;2.23;;;12.80;99.90;;;;;;5044394;28;20926;-74
2022/11/09 06:53:26;;;;;;;2.60;2.33;;;12.80;99.90;;;;;;5031470;28;20629;-73
2022/11/09 06:55:52;;;;;;;2.27;2.10;;;12.80;99.90;;;;;;5033995;28;20995;-74
2022/11/09 06:58:18;;;;;;;4.17;2.67;;;12.80;99.90;;;;;;5028759;28;20428;-74
2022/11/09 07:00:44;;;;;;;3.33;2.50;;;12.80;99.90;;;;;;5033980;28;20212;-75
2022/11/09 07:03:18;;;;;;;3.20;3.00;;;12.80;99.90;;;;;;5030401;28;20510;-74
2022/11/09 07:05:44;;;;;;;2.50;2.30;;;12.80;99.90;;;;;;5034324;28;20455;-74
2022/11/09 07:08:09;;;;;;;3.30;3.00;;;12.80;99.90;;;;;;5016328;28;20460;-74
2022/11/09 07:10:35;;;;;;;5.10;3.30;;;12.80;99.90;;;;;;5032020;28;20273;-73
2022/11/09 07:13:04;;;;;;;3.67;3.33;;;12.80;99.90;;;;;;5027704;28;20704;-74
2022/11/09 07:15:30;;;;;;;4.03;3.50;;;12.80;99.90;;;;;;5036423;28;20458;-74
2022/11/09 07:17:57;;;;;;;4.63;3.73;;;12.80;99.90;;;;;;5047749;28;20464;-74
2022/11/09 07:20:22;;;;;;;3.20;2.90;;;12.80;99.90;;;;;;5024667;28;20894;-74
2022/11/09 07:22:49;;;;;;;4.63;3.40;;;12.70;99.90;;;;;;5048272;28;20530;-74
2022/11/09 07:25:15;;;;;;;3.23;2.93;;;12.80;99.90;;;;;;5051864;28;20682;-73
2022/11/09 07:27:41;;;;;;;4.50;2.67;;;12.80;99.90;;;;;;5044356;28;20464;-73
2022/11/09 07:30:07;;;;;;;4.17;2.97;;;12.80;99.90;;;;;;5016894;28;20304;-73
2022/11/09 07:32:34;;;;;;;2.90;2.60;;;12.80;99.90;;;;;;5039044;28;20216;-74
2022/11/09 07:35:00;;;;;;;2.87;2.67;;;12.80;99.90;;;;;;5036132;28;20528;-74
2022/11/09 07:37:26;;;;;;;3.27;2.37;;;12.70;99.90;;;;;;5036568;28;20857;-73
2022/11/09 07:39:51;;;;;;;2.80;2.60;;;12.80;99.90;;;;;;5052761;28;20297;-74
2022/11/09 07:42:17;;;;;;;3.50;3.20;;;12.80;99.90;;;;;;5038013;28;20558;-74
2022/11/09 07:44:44;;;;;;;3.17;2.77;;;12.80;99.90;;;;;;5039679;28;20259;-73
2022/11/09 07:47:11;;;;;;;3.80;2.80;;;12.70;99.90;;;;;;5016512;28;20452;-74
2022/11/09 07:49:36;;;;;;;5.03;2.50;;;12.80;99.90;;;;;;5031083;28;20315;-74
2022/11/09 07:52:02;;;;;;;6.93;2.73;;;12.80;99.90;;;;;;5043421;28;20594;-73
2022/11/09 07:54:28;;;;;;;3.93;2.63;;;12.80;99.90;;;;;;5054241;28;20234;-74
2022/11/09 07:56:53;;;;;;;2.57;2.37;;;12.80;99.90;;;;;;5020894;28;20213;-74
2022/11/09 07:59:19;;;;;;;3.03;2.60;;;12.80;99.90;;;;;;5016211;28;20217;-73
2022/11/09 08:01:45;;;;;;;2.83;1.90;;;12.80;99.90;;;;;;5032206;28;20248;-74
2022/11/09 08:04:11;;;;;;;3.70;2.50;;;12.80;99.90;;;;;;5046769;28;20889;-74
2022/11/09 08:06:37;;;;;;;2.77;2.43;;;12.80;99.90;;;;;;5029481;28;20209;-73
2022/11/09 08:09:02;;;;;;;2.47;2.10;;;12.80;99.90;;;;;;5035208;28;20244;-72
2022/11/09 08:11:28;;;;;;;2.70;2.00;;;12.80;99.90;;;;;;5033908;28;20762;-73
2022/11/09 08:13:55;;;;;;;3.07;2.60;;;12.80;99.90;;;;;;5025670;28;20219;-74
2022/11/09 08:16:22;;;;;;;3.23;2.77;;;12.80;99.90;;;;;;5033292;28;20262;-74
2022/11/09 08:18:49;;;;;;;4.53;2.70;;;12.90;99.90;;;;;;5042189;28;20517;-74
2022/11/09 08:21:15;;;;;;;2.37;2.17;;;12.90;99.90;;;;;;5053232;28;20458;-74
2022/11/09 08:23:40;;;;;;;2.53;2.17;;;12.80;99.90;;;;;;5031221;28;20455;-73
2022/11/09 08:26:06;;;;;;;2.97;2.47;;;12.90;99.90;;;;;;5039752;28;20220;-73
2022/11/09 08:28:33;;;;;;;2.10;1.90;;;12.80;99.90;;;;;;5035975;28;20224;-74
2022/11/09 08:31:03;;;;;;;2.43;2.00;;;12.90;99.90;;;;;;5029819;28;20232;-75
2022/11/09 08:33:30;;;;;;;3.23;2.57;;;12.90;99.90;;;;;;5052434;28;20455;-74
2022/11/09 08:35:56;;;;;;;6.40;2.50;;;12.90;99.90;;;;;;5053311;28;20446;-74
2022/11/09 08:38:22;;;;;;;2.27;2.17;;;12.90;99.90;;;;;;5027741;28;20850;-75
2022/11/09 08:40:47;;;;;;;2.03;1.93;;;12.90;99.90;;;;;;5029760;28;20452;-74
2022/11/09 08:43:13;;;;;;;1.90;1.80;;;12.90;99.90;;;;;;5041994;28;20227;-74
2022/11/09 08:45:40;;;;;;;3.13;2.03;;;12.90;99.90;;;;;;5037263;28;20227;-74
2022/11/09 08:48:07;;;;;;;2.20;2.00;;;12.90;99.90;;;;;;5015096;28;20259;-74
2022/11/09 08:50:34;;;;;;;2.37;2.17;;;12.90;99.90;;;;;;5048929;28;20466;-73
2022/11/09 08:53:01;;;;;;;1.73;1.63;;;13.00;99.90;;;;;;5030932;28;20455;-74
2022/11/09 08:55:27;;;;;;;1.60;1.50;;;13.00;99.90;;;;;;5023784;28;20467;-73
2022/11/09 08:57:55;;;;;;;1.30;1.20;;;13.10;99.90;;;;;;5037093;28;20448;-73
2022/11/09 09:00:20;;;;;;;2.50;1.30;;;13.20;99.90;;;;;;5022129;28;20292;-75
2022/11/09 09:02:46;;;;;;;1.17;1.10;;;13.40;99.90;;;;;;5034421;28;20626;-74
2022/11/09 09:05:12;;;;;;;1.30;1.20;;;13.50;99.90;;;;;;5037432;28;20204;-75
2022/11/09 09:07:37;;;;;;;1.27;1.17;;;13.60;99.90;;;;;;5052824;28;20299;-73
2022/11/09 09:10:04;;;;;;;1.00;0.80;;;13.70;99.90;;;;;;5029838;28;20227;-73
2022/11/09 09:12:30;;;;;;;1.97;1.37;;;13.80;99.90;;;;;;5030319;28;20463;-73
2022/11/09 09:14:56;;;;;;;3.13;2.37;;;13.80;99.90;;;;;;5038360;28;20495;-75
2022/11/09 09:17:22;;;;;;;3.90;3.50;;;14.00;99.90;;;;;;5055589;28;20869;-74
2022/11/09 09:19:47;;;;;;;3.20;3.00;;;14.00;99.90;;;;;;5034695;28;20220;-74
2022/11/09 09:22:13;;;;;;;8.23;6.23;;;14.10;99.90;;;;;;5030267;28;20746;-73
2022/11/09 09:24:38;;;;;;;8.70;6.60;;;14.10;99.90;;;;;;5037699;28;20696;-74
2022/11/09 09:27:04;;;;;;;12.33;7.93;;;14.10;99.90;;;;;;5029745;28;20205;-73
2022/11/09 09:29:30;;;;;;;16.30;12.20;;;14.10;99.90;;;;;;5034952;28;20275;-74
2022/11/09 09:31:56;;;;;;;17.70;12.63;;;14.10;99.90;;;;;;5028421;28;20335;-74
2022/11/09 09:34:21;;;;;;;13.27;9.23;;;14.10;99.90;;;;;;5028973;28;20216;-73
2022/11/09 09:36:47;;;;;;;10.60;6.60;;;14.10;99.90;;;;;;5050406;28;20458;-74
2022/11/09 09:39:13;;;;;;;4.57;3.23;;;14.10;99.90;;;;;;5015158;28;20230;-73
2022/11/09 09:41:38;;;;;;;3.90;2.87;;;14.10;99.90;;;;;;5029562;28;20212;-74
2022/11/09 09:44:42;;;;;;;2.57;2.20;;;14.10;99.90;;;;;;5037275;28;20737;-73
2022/11/09 09:47:18;;;;;;;1.57;1.47;;;14.10;99.90;;;;;;5029695;28;20222;-74
2022/11/09 09:50:25;;;;;;;3.47;1.50;;;14.10;99.90;;;;;;5028761;28;20467;-73
2022/11/09 09:53:05;;;;;;;6.60;1.60;;;14.10;99.90;;;;;;4982781;28;20468;-74
2022/11/09 09:56:13;;;;;;;3.57;1.03;;;14.10;99.90;;;;;;4988707;28;20448;-74
2022/11/09 09:58:48;;;;;;;4.07;1.37;;;14.10;99.90;;;;;;4965729;28;20863;-73
2022/11/09 10:01:20;;;;;;;3.83;1.50;;;14.10;99.90;;;;;;5014095;28;20986;-74
2022/11/09 10:03:47;;;;;;;1.50;1.30;;;14.10;99.90;;;;;;5029087;28;20460;-74
2022/11/09 10:06:41;;;;;;;1.40;1.30;;;14.10;99.90;;;;;;5029775;28;20467;-73
2022/11/09 10:09:50;;;;;;;2.23;1.77;;;14.10;99.90;;;;;;5027653;28;20467;-74
2022/11/09 10:12:31;;;;;;;2.40;1.20;;;14.20;99.90;;;;;;5059904;28;20551;-74
2022/11/09 10:15:10;;;;;;;1.97;1.30;;;14.30;99.90;;;;;;5028719;28;20451;-74
2022/11/09 10:17:55;;;;;;;1.70;1.60;;;14.30;99.90;;;;;;5036953;28;20511;-74
2022/11/09 10:20:36;;;;;;;4.97;3.33;;;14.40;99.90;;;;;;5032703;28;20477;-74
2022/11/09 10:23:26;;;;;;;2.43;2.23;;;14.40;99.90;;;;;;5007746;28;20866;-74
2022/11/09 10:26:02;;;;;;;3.40;1.90;;;14.50;99.90;;;;;;5026780;28;20452;-73
2022/11/09 10:28:29;;;;;;;3.67;2.53;;;14.70;99.90;;;;;;5044858;28;20475;-74
2022/11/09 10:30:57;;;;;;;1.93;1.83;;;14.70;99.90;;;;;;5034311;28;20447;-74
2022/11/09 10:33:26;;;;;;;2.30;2.07;;;14.80;99.90;;;;;;5032219;28;20971;-73
2022/11/09 10:36:22;;;;;;;1.87;1.77;;;14.90;99.90;;;;;;5030845;28;20824;-73
2022/11/09 10:38:50;;;;;;;1.80;1.70;;;15.00;99.90;;;;;;5029260;28;20955;-74
2022/11/09 10:41:41;;;;;;;1.83;1.60;;;15.10;99.90;;;;;;5041164;28;20459;-75
2022/11/09 10:44:25;;;;;;;2.97;1.53;;;15.10;99.90;;;;;;5054601;28;20460;-75
2022/11/09 10:47:18;;;;;;;6.27;1.80;;;15.20;99.90;;;;;;5017493;28;20509;-74
2022/11/09 10:50:16;;;;;;;1.73;1.63;;;15.30;99.90;;;;;;5039846;28;21001;-74
2022/11/09 10:53:17;;;;;;;3.03;1.33;;;15.30;99.90;;;;;;5040209;28;20454;-74
2022/11/09 10:56:17;;;;;;;1.70;1.60;;;15.30;99.90;;;;;;5048525;28;20455;-74
2022/11/09 10:59:01;;;;;;;1.53;1.43;;;15.30;99.90;;;;;;5034972;28;20462;-75
2022/11/09 11:01:45;;;;;;;1.50;1.40;;;15.30;99.90;;;;;;5042733;28;21057;-73
2022/11/09 11:04:30;;;;;;;2.00;1.90;;;15.30;99.90;;;;;;5060709;28;20831;-74
2022/11/09 11:07:19;;;;;;;3.43;2.20;;;15.30;99.90;;;;;;5025138;28;20521;-74
2022/11/09 11:10:19;;;;;;;1.70;1.60;;;15.30;99.90;;;;;;5023873;28;20605;-74
2022/11/09 11:13:03;;;;;;;2.00;1.80;;;15.30;99.90;;;;;;5063637;28;21047;-73
2022/11/09 11:15:48;;;;;;;3.20;1.47;;;15.30;99.90;;;;;;5035064;28;20461;-74
2022/11/09 11:18:34;;;;;;;2.70;2.00;;;15.20;99.90;;;;;;5032391;28;20466;-72
2022/11/09 11:21:21;;;;;;;1.70;1.60;;;15.20;99.90;;;;;;5039389;28;20844;-73
2022/11/09 11:24:14;;;;;;;1.50;1.40;;;15.20;99.90;;;;;;5031822;28;20832;-74
2022/11/09 11:27:04;;;;;;;2.90;1.70;;;15.20;99.90;;;;;;5029822;28;21094;-73
2022/11/09 11:29:58;;;;;;;5.10;2.37;;;15.20;99.90;;;;;;5042990;28;20470;-74
2022/11/09 11:32:43;;;;;;;2.03;1.83;;;15.30;99.90;;;;;;5057116;28;20470;-73
2022/11/09 11:35:27;;;;;;;1.40;1.30;;;15.30;99.90;;;;;;5030778;28;20501;-73
2022/11/09 11:38:26;;;;;;;4.53;1.67;;;15.20;99.90;;;;;;5027520;28;20998;-73
2022/11/09 11:41:52;;;;;;;1.60;1.50;;;15.30;99.90;;;;;;5029200;28;20808;-74
2022/11/09 11:44:54;;;;;;;24.87;14.60;;;15.30;99.90;;;;;;5030765;28;20535;-74
2022/11/09 11:47:53;;;;;;;29.90;15.90;;;15.30;99.90;;;;;;5003992;28;20454;-74
2022/11/09 11:51:06;;;;;;;50.40;29.27;;;15.20;99.90;;;;;;5010699;28;20518;-73
2022/11/09 11:53:57;;;;;;;60.23;32.83;;;15.30;99.90;;;;;;4999699;28;20459;-75
2022/11/09 11:56:46;;;;;;;38.10;23.33;;;15.30;99.90;;;;;;5012691;28;20448;-73
2022/11/09 11:59:37;;;;;;;40.50;25.70;;;15.30;99.90;;;;;;5022682;28;20846;-74
2022/11/09 12:02:37;;;;;;;40.37;26.60;;;15.30;99.90;;;;;;5008620;28;20538;-73
2022/11/09 12:06:01;;;;;;;17.27;12.90;;;15.30;99.90;;;;;;5015318;28;20816;-75
2022/11/09 12:08:57;;;;;;;4.20;3.20;;;15.30;99.90;;;;;;5035955;28;20621;-74
2022/11/09 12:12:11;;;;;;;2.73;2.30;;;15.20;99.90;;;;;;5036452;28;20501;-73
2022/11/09 12:15:20;;;;;;;2.90;1.70;;;15.20;99.90;;;;;;5046020;28;20521;-74
2022/11/09 12:18:14;;;;;;;5.30;2.00;;;15.30;99.90;;;;;;5036433;28;20601;-73
2022/11/09 12:21:20;;;;;;;2.23;1.60;;;15.30;99.90;;;;;;5035569;28;21157;-74
2022/11/09 12:24:23;;;;;;;3.63;2.40;;;15.30;99.90;;;;;;5041364;28;20993;-74
2022/11/09 12:27:28;;;;;;;2.00;1.90;;;15.30;99.90;;;;;;5039784;28;20466;-73
2022/11/09 12:30:22;;;;;;;4.20;1.77;;;15.20;99.90;;;;;;5035609;28;20465;-74
2022/11/09 12:33:13;;;;;;;1.50;1.40;;;15.20;99.90;;;;;;5031613;28;20497;-74
2022/11/09 12:36:07;;;;;;;1.63;1.53;;;15.10;99.90;;;;;;5041743;28;20614;-74
2022/11/09 12:39:00;;;;;;;2.40;1.80;;;15.10;99.90;;;;;;5034264;28;20508;-74
2022/11/09 12:41:46;;;;;;;4.23;2.00;;;15.10;99.90;;;;;;5036645;28;20582;-74
2022/11/09 12:44:42;;;;;;;1.33;1.27;;;15.10;99.90;;;;;;5035923;28;20941;-74
2022/11/09 12:47:31;;;;;;;2.10;1.37;;;15.10;99.90;;;;;;5029396;28;20458;-74
2022/11/09 12:50:18;;;;;;;1.60;1.50;;;15.10;99.90;;;;;;5047835;28;20475;-74
2022/11/09 12:53:04;;;;;;;4.07;2.20;;;15.00;99.90;;;;;;5039499;28;20474;-73
2022/11/09 12:56:14;;;;;;;1.20;1.20;;;15.00;99.90;;;;;;5031590;28;20526;-74
2022/11/09 12:59:36;;;;;;;1.97;1.40;;;15.00;99.90;;;;;;5033961;28;20884;-74
2022/11/09 13:02:31;;;;;;;3.20;1.40;;;15.00;99.90;;;;;;5028540;28;20458;-72
2022/11/09 13:05:30;;;;;;;6.13;1.97;;;15.00;99.90;;;;;;5055312;28;20462;-74
2022/11/09 13:08:28;;;;;;;2.10;1.73;;;15.00;99.90;;;;;;5026428;28;20479;-72
2022/11/09 13:11:31;;;;;;;1.80;1.20;;;15.00;99.90;;;;;;5026862;28;20501;-74
2022/11/09 13:14:35;;;;;;;2.03;1.40;;;15.00;99.90;;;;;;5041293;28;20454;-74
2022/11/09 13:17:23;;;;;;;5.40;1.50;;;15.00;99.90;;;;;;5029071;28;20453;-74